Time;durP1;ratioP1;P1;durP2;ratioP2;P2;SDS_P1;SDS_P2;PMS_P1;PMS_P2;Temp;Humidity;BMP_temperature;BMP_pressure;BME280_temperature;BME280_humidity;BME280_pressure;Samples;Min_cycle;Max_cycle;Signal;HPM_P1;HPM_P2
2023/02/18 00:01:42;;;;;;;13.60;12.20;;;;;;;;;;5084579;28;20177;-50
2023/02/18 00:04:09;;;;;;;14.40;12.97;;;;;;;;;;5088162;28;20176;-51
2023/02/18 00:06:35;;;;;;;14.20;12.43;;;;;;;;;;5085050;28;20884;-50
2023/02/18 00:09:03;;;;;;;15.73;13.17;;;;;;;;;;5089061;28;20172;-50
2023/02/18 00:11:29;;;;;;;14.87;13.37;;;;;;;;;;5082374;28;20176;-50
2023/02/18 00:13:57;;;;;;;14.00;12.30;;;;;;;;;;5087479;28;20206;-51
2023/02/18 00:16:24;;;;;;;14.93;13.37;;;;;;;;;;5091344;28;20342;-51
2023/02/18 00:18:50;;;;;;;13.97;12.33;;;;;;;;;;5085471;28;20635;-49
2023/02/18 00:21:16;;;;;;;14.17;12.83;;;;;;;;;;5081334;28;20605;-50
2023/02/18 00:23:42;;;;;;;13.60;12.20;;;;;;;;;;5090543;28;20646;-50
2023/02/18 00:26:12;;;;;;;14.57;13.10;;;;;;;;;;5082375;28;20237;-51
2023/02/18 00:28:38;;;;;;;14.10;12.67;;;;;;;;;;5078392;28;20555;-50
2023/02/18 00:31:27;;;;;;;14.43;12.93;;;;;;;;;;5084749;28;20196;-50
2023/02/18 00:33:54;;;;;;;13.30;11.97;;;;;;;;;;5087874;28;20268;-49
2023/02/18 00:36:21;;;;;;;14.73;13.27;;;;;;;;;;5089855;28;20340;-51
2023/02/18 00:38:48;;;;;;;12.97;11.67;;;;;;;;;;5088508;28;20174;-51
2023/02/18 00:41:15;;;;;;;13.63;12.33;;;;;;;;;;5075468;28;20281;-51
2023/02/18 00:43:41;;;;;;;13.03;11.73;;;;;;;;;;5090754;28;20641;-50
2023/02/18 00:46:07;;;;;;;14.37;12.87;;;;;;;;;;5078705;28;20647;-50
2023/02/18 00:48:33;;;;;;;14.20;12.43;;;;;;;;;;5094358;28;20228;-50
2023/02/18 00:51:00;;;;;;;12.97;11.67;;;;;;;;;;5088568;28;20200;-50
2023/02/18 00:53:27;;;;;;;12.90;11.60;;;;;;;;;;5086071;28;20175;-50
2023/02/18 00:55:53;;;;;;;12.27;10.70;;;;;;;;;;5077078;28;20207;-50
2023/02/18 00:58:19;;;;;;;12.10;10.57;;;;;;;;;;5082052;28;20185;-49
2023/02/18 01:00:45;;;;;;;12.77;11.43;;;;;;;;;;5087104;28;20187;-51
2023/02/18 01:03:12;;;;;;;13.50;12.20;;;;;;;;;;5079014;28;20187;-50
2023/02/18 01:05:39;;;;;;;13.43;11.10;;;;;;;;;;5085805;28;20655;-51
2023/02/18 01:08:05;;;;;;;12.40;11.17;;;;;;;;;;5088208;28;20219;-51
2023/02/18 01:10:31;;;;;;;12.70;10.93;;;;;;;;;;5085956;28;20211;-50
2023/02/18 01:12:57;;;;;;;13.17;11.77;;;;;;;;;;5081088;28;20279;-51
2023/02/18 01:15:24;;;;;;;13.67;11.30;;;;;;;;;;5084518;28;20192;-51
2023/02/18 01:17:50;;;;;;;12.00;10.80;;;;;;;;;;5080086;28;20699;-50
2023/02/18 01:20:17;;;;;;;12.80;11.53;;;;;;;;;;5080178;28;20207;-50
2023/02/18 01:22:43;;;;;;;12.73;10.93;;;;;;;;;;5074758;28;20192;-52
2023/02/18 01:25:09;;;;;;;12.87;10.43;;;;;;;;;;5078589;28;20183;-51
2023/02/18 01:27:36;;;;;;;12.03;10.57;;;;;;;;;;5081959;28;20192;-51
2023/02/18 01:30:02;;;;;;;12.90;10.93;;;;;;;;;;5080498;28;20238;-51
2023/02/18 01:32:28;;;;;;;12.97;11.10;;;;;;;;;;5084728;28;20669;-52
2023/02/18 01:34:54;;;;;;;13.57;10.90;;;;;;;;;;5090570;28;20543;-50
2023/02/18 01:37:20;;;;;;;12.47;11.17;;;;;;;;;;5082060;28;20205;-51
2023/02/18 01:39:46;;;;;;;12.27;11.07;;;;;;;;;;5080633;28;20180;-50
2023/02/18 01:42:18;;;;;;;13.37;11.50;;;;;;;;;;5078870;28;20191;-51
2023/02/18 01:44:44;;;;;;;11.63;10.43;;;;;;;;;;5093936;28;20188;-51
2023/02/18 01:47:10;;;;;;;13.00;11.67;;;;;;;;;;5074664;28;20647;-51
2023/02/18 01:49:37;;;;;;;12.77;10.90;;;;;;;;;;5080977;28;20234;-50
2023/02/18 01:52:05;;;;;;;11.23;10.13;;;;;;;;;;5081854;28;20297;-50
2023/02/18 01:54:33;;;;;;;10.63;9.53;;;;;;;;;;5086457;28;20175;-51
2023/02/18 01:56:59;;;;;;;10.57;9.43;;;;;;;;;;5075597;28;20200;-51
2023/02/18 01:59:27;;;;;;;11.77;10.57;;;;;;;;;;5085680;28;20183;-50
2023/02/18 02:01:54;;;;;;;12.73;9.73;;;;;;;;;;5079973;28;20184;-51
2023/02/18 02:04:20;;;;;;;11.13;10.13;;;;;;;;;;5092271;28;20183;-50
2023/02/18 02:06:46;;;;;;;10.37;9.17;;;;;;;;;;5082121;28;20176;-51
2023/02/18 02:09:14;;;;;;;11.03;9.73;;;;;;;;;;5082365;28;20880;-51
2023/02/18 02:11:43;;;;;;;10.60;9.57;;;;;;;;;;5077798;28;20180;-50
2023/02/18 02:14:28;;;;;;;9.97;8.97;;;;;;;;;;5084522;28;20184;-50
2023/02/18 02:17:03;;;;;;;9.33;8.47;;;;;;;;;;5085304;28;20281;-50
2023/02/18 02:19:47;;;;;;;9.70;8.70;;;;;;;;;;5085323;28;20538;-50
2023/02/18 02:22:26;;;;;;;8.90;8.00;;;;;;;;;;5084694;28;20654;-51
2023/02/18 02:25:05;;;;;;;10.50;9.10;;;;;;;;;;5084738;28;20236;-50
2023/02/18 02:27:51;;;;;;;9.40;8.50;;;;;;;;;;5080363;28;20175;-51
2023/02/18 02:30:28;;;;;;;11.97;10.87;;;;;;;;;;5084994;28;20203;-50
2023/02/18 02:33:01;;;;;;;8.53;7.73;;;;;;;;;;5086041;28;20184;-51
2023/02/18 02:35:33;;;;;;;9.67;8.37;;;;;;;;;;5088790;28;20564;-51
2023/02/18 02:38:02;;;;;;;7.70;6.90;;;;;;;;;;5086873;28;20229;-51
2023/02/18 02:40:28;;;;;;;8.30;7.53;;;;;;;;;;5081119;28;20183;-51
2023/02/18 02:43:03;;;;;;;8.83;7.93;;;;;;;;;;5085777;28;20667;-51
2023/02/18 02:45:38;;;;;;;8.80;7.90;;;;;;;;;;5077301;28;20665;-51
2023/02/18 02:48:33;;;;;;;8.27;7.57;;;;;;;;;;5083680;28;20179;-51
2023/02/18 02:51:12;;;;;;;7.93;7.23;;;;;;;;;;5062224;28;20211;-51
2023/02/18 02:53:40;;;;;;;7.93;7.13;;;;;;;;;;5080282;28;20211;-51
2023/02/18 02:56:09;;;;;;;8.47;7.63;;;;;;;;;;5073964;28;20242;-50
2023/02/18 02:58:35;;;;;;;8.43;7.67;;;;;;;;;;5079901;28;20344;-51
2023/02/18 03:01:19;;;;;;;8.23;7.47;;;;;;;;;;5085910;28;20689;-51
2023/02/18 03:03:58;;;;;;;7.87;7.17;;;;;;;;;;5083518;28;20597;-50
2023/02/18 03:06:34;;;;;;;8.40;7.60;;;;;;;;;;5086981;28;20518;-50
2023/02/18 03:09:14;;;;;;;7.53;6.83;;;;;;;;;;5092606;28;20191;-50
2023/02/18 03:11:52;;;;;;;6.97;6.37;;;;;;;;;;5085598;28;20175;-51
2023/02/18 03:14:28;;;;;;;8.83;7.93;;;;;;;;;;5086364;28;20705;-50
2023/02/18 03:16:57;;;;;;;9.40;7.87;;;;;;;;;;5081686;28;20393;-51
2023/02/18 03:19:27;;;;;;;6.93;6.33;;;;;;;;;;5089820;28;20297;-51
2023/02/18 03:21:58;;;;;;;7.33;6.63;;;;;;;;;;5086361;28;20176;-50
2023/02/18 03:24:26;;;;;;;8.20;7.40;;;;;;;;;;5081566;28;20205;-52
2023/02/18 03:26:55;;;;;;;7.97;7.00;;;;;;;;;;5082487;28;20180;-52
2023/02/18 03:29:22;;;;;;;8.03;7.23;;;;;;;;;;5089539;28;20184;-51
2023/02/18 03:31:50;;;;;;;7.67;6.97;;;;;;;;;;5091762;28;20171;-51
2023/02/18 03:34:18;;;;;;;7.77;7.07;;;;;;;;;;5079335;28;20223;-51
2023/02/18 03:36:44;;;;;;;8.43;7.63;;;;;;;;;;5080664;28;20182;-51
2023/02/18 03:39:13;;;;;;;8.57;7.67;;;;;;;;;;5084621;28;20187;-52
2023/02/18 03:41:39;;;;;;;9.27;8.37;;;;;;;;;;5086700;28;20216;-51
2023/02/18 03:44:07;;;;;;;8.50;7.37;;;;;;;;;;5095739;28;20190;-51
2023/02/18 03:46:33;;;;;;;9.77;8.27;;;;;;;;;;5083927;28;20511;-50
2023/02/18 03:48:59;;;;;;;8.67;7.50;;;;;;;;;;5086367;28;20617;-51
2023/02/18 03:51:25;;;;;;;10.77;8.63;;;;;;;;;;5085603;28;20261;-50
2023/02/18 03:53:51;;;;;;;9.17;8.20;;;;;;;;;;5090663;28;20597;-51
2023/02/18 03:56:18;;;;;;;8.90;8.00;;;;;;;;;;5088278;28;20199;-51
2023/02/18 03:58:44;;;;;;;8.53;7.73;;;;;;;;;;5087841;28;20207;-50
2023/02/18 04:01:10;;;;;;;10.17;9.23;;;;;;;;;;5086880;28;20191;-52
2023/02/18 04:03:36;;;;;;;8.40;7.50;;;;;;;;;;5080073;28;20192;-50
2023/02/18 04:06:02;;;;;;;8.30;7.43;;;;;;;;;;5090115;28;20221;-51
2023/02/18 04:08:28;;;;;;;9.17;8.27;;;;;;;;;;5083390;28;20244;-50
2023/02/18 04:10:54;;;;;;;9.87;8.93;;;;;;;;;;5081914;28;20281;-50
2023/02/18 04:13:21;;;;;;;8.23;7.33;;;;;;;;;;5088452;28;20184;-51
2023/02/18 04:15:49;;;;;;;9.50;8.07;;;;;;;;;;5086757;28;20541;-50
2023/02/18 04:18:15;;;;;;;9.47;8.53;;;;;;;;;;5084828;28;20184;-51
2023/02/18 04:20:41;;;;;;;8.87;7.70;;;;;;;;;;5089285;28;20191;-51
2023/02/18 04:23:07;;;;;;;8.23;7.33;;;;;;;;;;5089593;28;20199;-51
2023/02/18 04:25:34;;;;;;;8.27;7.47;;;;;;;;;;5079076;28;20187;-51
2023/02/18 04:28:00;;;;;;;8.63;7.37;;;;;;;;;;5087101;28;20601;-51
2023/02/18 04:30:27;;;;;;;7.93;7.13;;;;;;;;;;5091975;28;20821;-51
2023/02/18 04:32:53;;;;;;;10.10;7.97;;;;;;;;;;5085713;28;20275;-50
2023/02/18 04:35:19;;;;;;;7.33;6.63;;;;;;;;;;5091959;28;20317;-51
2023/02/18 04:37:45;;;;;;;7.03;6.33;;;;;;;;;;5085510;28;20738;-50
2023/02/18 04:40:12;;;;;;;8.37;7.57;;;;;;;;;;5087189;28;20225;-52
2023/02/18 04:42:38;;;;;;;7.67;6.77;;;;;;;;;;5082250;28;20195;-51
2023/02/18 04:45:04;;;;;;;7.63;6.83;;;;;;;;;;5089926;28;20183;-52
2023/02/18 04:47:30;;;;;;;9.27;7.13;;;;;;;;;;5088499;28;20176;-51
2023/02/18 04:49:56;;;;;;;8.53;6.20;;;;;;;;;;5083570;28;20242;-51
2023/02/18 04:52:22;;;;;;;6.30;5.57;;;;;;;;;;5083042;28;20184;-51
2023/02/18 04:54:48;;;;;;;5.23;4.67;;;;;;;;;;5090138;28;20236;-51
2023/02/18 04:57:14;;;;;;;5.87;5.27;;;;;;;;;;5078592;28;20195;-52
2023/02/18 04:59:41;;;;;;;6.10;5.30;;;;;;;;;;5088870;28;20184;-51
2023/02/18 05:02:07;;;;;;;7.30;5.87;;;;;;;;;;5056392;28;20214;-52
2023/02/18 05:04:33;;;;;;;5.23;4.73;;;;;;;;;;5081740;28;20180;-52
2023/02/18 05:06:59;;;;;;;5.57;4.90;;;;;;;;;;5085951;28;20648;-51
2023/02/18 05:09:25;;;;;;;4.00;3.53;;;;;;;;;;5091265;28;20270;-51
2023/02/18 05:11:51;;;;;;;6.87;4.93;;;;;;;;;;5073449;28;20184;-51
2023/02/18 05:14:17;;;;;;;4.93;4.43;;;;;;;;;;5090760;28;20333;-52
2023/02/18 05:16:43;;;;;;;4.60;4.20;;;;;;;;;;5083948;28;20230;-52
2023/02/18 05:19:13;;;;;;;4.43;4.03;;;;;;;;;;5089341;28;20245;-52
2023/02/18 05:21:39;;;;;;;4.00;3.70;;;;;;;;;;5071093;28;20192;-51
2023/02/18 05:24:05;;;;;;;3.70;3.37;;;;;;;;;;5086440;28;20188;-52
2023/02/18 05:26:31;;;;;;;3.57;3.17;;;;;;;;;;5079377;28;20185;-52
2023/02/18 05:28:57;;;;;;;3.57;3.27;;;;;;;;;;5081767;28;20184;-52
2023/02/18 05:31:23;;;;;;;3.43;3.13;;;;;;;;;;5089451;28;20694;-52
2023/02/18 05:33:50;;;;;;;4.10;2.40;;;;;;;;;;5087375;28;20183;-52
2023/02/18 05:36:16;;;;;;;3.10;2.80;;;;;;;;;;5081143;28;20178;-54
2023/02/18 05:38:42;;;;;;;4.20;2.83;;;;;;;;;;5087502;28;20224;-53
2023/02/18 05:41:08;;;;;;;3.40;2.53;;;;;;;;;;5083087;28;20187;-52
2023/02/18 05:44:29;;;;;;;3.23;2.93;;;;;;;;;;5087736;28;20182;-52
2023/02/18 05:46:20;;;;;;;4.17;3.77;;;;;;;;;;5077606;28;20196;-52
2023/02/18 05:48:46;;;;;;;2.40;2.20;;;;;;;;;;5082857;28;20179;-52
2023/02/18 05:51:12;;;;;;;2.57;2.37;;;;;;;;;;5083100;28;20236;-55
2023/02/18 05:53:38;;;;;;;2.53;2.33;;;;;;;;;;5085301;28;20176;-52
2023/02/18 05:56:04;;;;;;;2.63;2.40;;;;;;;;;;5081011;28;20663;-53
2023/02/18 05:58:30;;;;;;;2.50;2.30;;;;;;;;;;5086551;28;20550;-52
2023/02/18 06:00:56;;;;;;;2.40;2.20;;;;;;;;;;5081458;28;20253;-52
2023/02/18 06:03:22;;;;;;;2.10;2.00;;;;;;;;;;5087296;28;20192;-54
2023/02/18 06:05:52;;;;;;;2.37;2.07;;;;;;;;;;5084857;28;20183;-53
2023/02/18 06:08:19;;;;;;;1.93;1.73;;;;;;;;;;5082142;28;20208;-52
2023/02/18 06:10:45;;;;;;;2.37;1.97;;;;;;;;;;5071142;28;20678;-53
2023/02/18 06:13:11;;;;;;;1.90;1.80;;;;;;;;;;5072687;28;20205;-53
2023/02/18 06:15:37;;;;;;;2.47;2.20;;;;;;;;;;5094564;28;20222;-54
2023/02/18 06:18:04;;;;;;;2.43;2.23;;;;;;;;;;5081960;28;20188;-53
2023/02/18 06:20:30;;;;;;;2.50;2.30;;;;;;;;;;5090388;28;20187;-53
2023/02/18 06:22:56;;;;;;;2.10;1.90;;;;;;;;;;5079614;28;20513;-53
2023/02/18 06:25:22;;;;;;;1.97;1.77;;;;;;;;;;5091461;28;20841;-54
2023/02/18 06:27:48;;;;;;;1.83;1.73;;;;;;;;;;5075369;28;20195;-54
2023/02/18 06:30:14;;;;;;;2.47;2.27;;;;;;;;;;5088215;28;20206;-53
2023/02/18 06:32:40;;;;;;;1.90;1.80;;;;;;;;;;5083122;28;20180;-53
2023/02/18 06:35:06;;;;;;;2.63;2.17;;;;;;;;;;5089607;28;20173;-53
2023/02/18 06:37:32;;;;;;;2.93;2.33;;;;;;;;;;5083850;28;20670;-55
2023/02/18 06:39:58;;;;;;;2.73;2.53;;;;;;;;;;5085995;28;20646;-55
2023/02/18 06:42:25;;;;;;;2.50;2.30;;;;;;;;;;5081961;28;20195;-53
2023/02/18 06:44:51;;;;;;;2.60;2.40;;;;;;;;;;5084181;28;20212;-53
2023/02/18 06:47:17;;;;;;;2.57;2.37;;;;;;;;;;5074167;28;20172;-55
2023/02/18 06:49:43;;;;;;;2.40;2.20;;;;;;;;;;5084907;28;20550;-54
2023/02/18 06:52:09;;;;;;;2.60;2.40;;;;;;;;;;5084147;28;20553;-54
2023/02/18 06:54:35;;;;;;;3.40;2.20;;;;;;;;;;5086884;28;20187;-54
2023/02/18 06:57:01;;;;;;;2.57;2.30;;;;;;;;;;5075845;28;20250;-55
2023/02/18 06:59:27;;;;;;;2.80;2.60;;;;;;;;;;5081038;28;20177;-54
2023/02/18 07:01:53;;;;;;;2.50;2.30;;;;;;;;;;5080700;28;20238;-53
2023/02/18 07:04:19;;;;;;;3.33;2.67;;;;;;;;;;5078164;28;20184;-52
2023/02/18 07:06:45;;;;;;;2.60;2.40;;;;;;;;;;5081840;28;20187;-53
2023/02/18 07:09:11;;;;;;;2.27;2.07;;;;;;;;;;5082319;28;20580;-54
2023/02/18 07:11:37;;;;;;;2.30;2.20;;;;;;;;;;5078145;28;20253;-53
2023/02/18 07:14:03;;;;;;;3.53;3.23;;;;;;;;;;5082464;28;20267;-54
2023/02/18 07:16:29;;;;;;;3.47;2.70;;;;;;;;;;5081342;28;20273;-55
2023/02/18 07:18:55;;;;;;;2.83;2.47;;;;;;;;;;5081342;28;20771;-53
2023/02/18 07:21:21;;;;;;;2.93;2.47;;;;;;;;;;5086518;28;20654;-52
2023/02/18 07:23:47;;;;;;;2.83;2.63;;;;;;;;;;5078749;28;20199;-52
2023/02/18 07:26:14;;;;;;;3.23;2.60;;;;;;;;;;5084194;28;20192;-53
2023/02/18 07:28:40;;;;;;;3.13;2.83;;;;;;;;;;5077731;28;20183;-54
2023/02/18 07:31:06;;;;;;;2.60;2.40;;;;;;;;;;5084197;28;20203;-53
2023/02/18 07:33:32;;;;;;;3.17;2.77;;;;;;;;;;5085739;28;20720;-53
2023/02/18 07:35:59;;;;;;;5.20;2.50;;;;;;;;;;5081710;28;20733;-55
2023/02/18 07:38:26;;;;;;;2.90;2.47;;;;;;;;;;5081874;28;20181;-52
2023/02/18 07:40:53;;;;;;;3.13;2.70;;;;;;;;;;5076779;28;20626;-53
2023/02/18 07:43:19;;;;;;;3.67;2.80;;;;;;;;;;5079537;28;20564;-54
2023/02/18 07:45:45;;;;;;;3.10;2.50;;;;;;;;;;5092591;28;20188;-52
2023/02/18 07:48:12;;;;;;;4.60;3.00;;;;;;;;;;5092067;28;20230;-53
2023/02/18 07:50:42;;;;;;;3.50;2.97;;;;;;;;;;5087646;28;20206;-54
2023/02/18 07:53:11;;;;;;;3.83;2.80;;;;;;;;;;5089065;28;20183;-53
2023/02/18 07:55:50;;;;;;;2.37;2.17;;;;;;;;;;5077577;28;20740;-53
2023/02/18 07:58:17;;;;;;;2.90;2.60;;;;;;;;;;5085077;28;20254;-53
2023/02/18 08:00:43;;;;;;;2.73;2.40;;;;;;;;;;5095316;28;20510;-53
2023/02/18 08:03:09;;;;;;;2.47;2.27;;;;;;;;;;5085703;28;20191;-55
2023/02/18 08:05:35;;;;;;;2.30;2.10;;;;;;;;;;5082696;28;20184;-53
2023/02/18 08:08:01;;;;;;;2.50;2.30;;;;;;;;;;5084963;28;20184;-54
2023/02/18 08:10:27;;;;;;;2.97;2.27;;;;;;;;;;5084708;28;20211;-53
2023/02/18 08:12:53;;;;;;;3.97;2.30;;;;;;;;;;5085428;28;20572;-53
2023/02/18 08:15:19;;;;;;;3.70;2.67;;;;;;;;;;5092830;28;21014;-53
2023/02/18 08:17:45;;;;;;;4.03;2.67;;;;;;;;;;5089923;28;20216;-54
2023/02/18 08:20:11;;;;;;;3.13;2.43;;;;;;;;;;5083885;28;20181;-53
2023/02/18 08:22:37;;;;;;;3.37;2.30;;;;;;;;;;5081689;28;20180;-53
2023/02/18 08:25:03;;;;;;;3.50;2.93;;;;;;;;;;5094243;28;20270;-52
2023/02/18 08:27:29;;;;;;;3.07;2.60;;;;;;;;;;5079664;28;20622;-54
2023/02/18 08:29:55;;;;;;;2.53;2.30;;;;;;;;;;5082491;28;20326;-54
2023/02/18 08:32:21;;;;;;;3.80;2.50;;;;;;;;;;5063440;28;20658;-52
2023/02/18 08:34:47;;;;;;;3.83;3.27;;;;;;;;;;5081882;28;20184;-53
2023/02/18 08:37:14;;;;;;;2.90;2.60;;;;;;;;;;5076972;28;20670;-53
2023/02/18 08:39:40;;;;;;;4.30;2.80;;;;;;;;;;5090323;28;20283;-53
2023/02/18 08:42:06;;;;;;;3.80;2.87;;;;;;;;;;5083844;28;20188;-53
2023/02/18 08:44:32;;;;;;;3.83;2.93;;;;;;;;;;5091835;28;20225;-53
2023/02/18 08:46:58;;;;;;;5.60;2.90;;;;;;;;;;5084888;28;20198;-53
2023/02/18 08:49:24;;;;;;;4.63;3.03;;;;;;;;;;5082796;28;20176;-52
2023/02/18 08:51:50;;;;;;;3.67;2.80;;;;;;;;;;5086304;28;20222;-54
2023/02/18 08:54:17;;;;;;;6.00;3.57;;;;;;;;;;5086708;28;20692;-53
2023/02/18 08:56:43;;;;;;;7.13;3.70;;;;;;;;;;5079178;28;20598;-55
2023/02/18 08:59:09;;;;;;;8.47;4.63;;;;;;;;;;5081541;28;20176;-52
2023/02/18 09:01:35;;;;;;;11.83;4.13;;;;;;;;;;5090876;28;20215;-53
2023/02/18 09:04:01;;;;;;;13.17;3.90;;;;;;;;;;5084734;28;20184;-53
2023/02/18 09:06:27;;;;;;;10.53;3.60;;;;;;;;;;5077704;28;20184;-54
2023/02/18 09:08:53;;;;;;;7.77;4.07;;;;;;;;;;5086679;28;20186;-54
2023/02/18 09:11:19;;;;;;;8.10;3.77;;;;;;;;;;5086136;28;20467;-53
2023/02/18 09:13:46;;;;;;;9.03;3.80;;;;;;;;;;5077050;28;20181;-52
2023/02/18 09:16:13;;;;;;;5.23;3.37;;;;;;;;;;5079119;28;20241;-54
2023/02/18 09:18:39;;;;;;;5.90;3.13;;;;;;;;;;5089303;28;20540;-53
2023/02/18 09:21:08;;;;;;;11.47;3.77;;;;;;;;;;5085280;28;20191;-53
2023/02/18 09:23:34;;;;;;;5.50;3.57;;;;;;;;;;5080600;28;20181;-52
2023/02/18 09:26:03;;;;;;;6.30;3.30;;;;;;;;;;5087831;28;20194;-52
2023/02/18 09:28:29;;;;;;;6.97;3.57;;;;;;;;;;5086174;28;20191;-53
2023/02/18 09:30:55;;;;;;;6.07;3.10;;;;;;;;;;5090670;28;20203;-52
2023/02/18 09:33:21;;;;;;;4.00;2.70;;;;;;;;;;5085670;28;20180;-52
2023/02/18 09:35:47;;;;;;;5.10;3.27;;;;;;;;;;5077674;28;20190;-52
2023/02/18 09:38:15;;;;;;;7.63;3.37;;;;;;;;;;5083972;28;20179;-53
2023/02/18 09:40:43;;;;;;;5.57;3.10;;;;;;;;;;5088916;28;20185;-53
2023/02/18 09:43:17;;;;;;;6.90;3.33;;;;;;;;;;5084730;28;20192;-54
2023/02/18 09:45:44;;;;;;;7.13;2.80;;;;;;;;;;5083980;28;20187;-52
2023/02/18 09:48:10;;;;;;;7.90;3.00;;;;;;;;;;5075583;28;20216;-53
2023/02/18 09:50:36;;;;;;;8.70;3.87;;;;;;;;;;5091358;28;20730;-52
2023/02/18 09:53:03;;;;;;;8.13;3.43;;;;;;;;;;5081578;28;20192;-52
2023/02/18 09:55:31;;;;;;;4.50;3.23;;;;;;;;;;5081901;28;20592;-52
2023/02/18 09:58:01;;;;;;;7.80;3.43;;;;;;;;;;5077416;28;20180;-52
2023/02/18 10:00:33;;;;;;;5.07;3.43;;;;;;;;;;5090775;28;20167;-52
2023/02/18 10:03:04;;;;;;;6.93;3.13;;;;;;;;;;5081119;28;20195;-52
2023/02/18 10:05:31;;;;;;;6.13;3.43;;;;;;;;;;5084302;28;20224;-53
2023/02/18 10:08:05;;;;;;;11.13;3.47;;;;;;;;;;5082627;28;20192;-52
2023/02/18 10:10:39;;;;;;;7.80;3.40;;;;;;;;;;5080206;28;20207;-52
2023/02/18 10:13:10;;;;;;;9.33;3.27;;;;;;;;;;5083980;28;20939;-52
2023/02/18 10:15:37;;;;;;;6.10;3.40;;;;;;;;;;5081456;28;20266;-53
2023/02/18 10:18:05;;;;;;;4.90;3.40;;;;;;;;;;5080894;28;20183;-53
2023/02/18 10:20:32;;;;;;;6.73;3.00;;;;;;;;;;5086457;28;20257;-54
2023/02/18 10:23:00;;;;;;;6.87;4.17;;;;;;;;;;5088125;28;20689;-51
2023/02/18 10:25:28;;;;;;;5.20;3.10;;;;;;;;;;5087801;28;20256;-54
2023/02/18 10:27:54;;;;;;;11.97;4.33;;;;;;;;;;5084142;28;20261;-51
2023/02/18 10:30:32;;;;;;;8.37;3.90;;;;;;;;;;5088934;28;20207;-53
2023/02/18 10:33:17;;;;;;;8.27;3.73;;;;;;;;;;5083768;28;20184;-53
2023/02/18 10:35:52;;;;;;;8.57;4.80;;;;;;;;;;5087325;28;20270;-52
2023/02/18 10:38:30;;;;;;;9.03;4.27;;;;;;;;;;5079399;28;20563;-53
2023/02/18 10:40:59;;;;;;;5.53;3.37;;;;;;;;;;5084537;28;20233;-53
2023/02/18 10:43:28;;;;;;;5.97;4.00;;;;;;;;;;5087128;28;20650;-52
2023/02/18 10:46:07;;;;;;;11.50;4.80;;;;;;;;;;5082666;28;20540;-54
2023/02/18 10:48:39;;;;;;;8.83;5.47;;;;;;;;;;5085455;28;20251;-52
2023/02/18 10:51:14;;;;;;;7.67;5.33;;;;;;;;;;5087242;28;20227;-52
2023/02/18 10:53:42;;;;;;;8.03;5.00;;;;;;;;;;5085641;28;20654;-52
2023/02/18 10:56:08;;;;;;;13.03;6.20;;;;;;;;;;5087322;28;20210;-53
2023/02/18 10:58:36;;;;;;;11.53;5.40;;;;;;;;;;5083751;28;20210;-52
2023/02/18 11:01:07;;;;;;;10.73;5.93;;;;;;;;;;5081722;28;20707;-53
2023/02/18 11:03:41;;;;;;;10.47;6.37;;;;;;;;;;5085046;28;20188;-53
2023/02/18 11:06:15;;;;;;;11.20;6.50;;;;;;;;;;5081337;28;20575;-52
2023/02/18 11:08:43;;;;;;;17.23;6.20;;;;;;;;;;5083728;28;20199;-53
2023/02/18 11:11:13;;;;;;;12.27;6.00;;;;;;;;;;5079535;28;20264;-53
2023/02/18 11:13:40;;;;;;;9.10;5.00;;;;;;;;;;5078288;28;20211;-54
2023/02/18 11:16:08;;;;;;;12.17;5.20;;;;;;;;;;5077301;28;20219;-54
2023/02/18 11:18:41;;;;;;;10.83;6.00;;;;;;;;;;5077647;28;20207;-53
2023/02/18 11:21:21;;;;;;;9.27;5.23;;;;;;;;;;5080719;28;20184;-53
2023/02/18 11:23:49;;;;;;;6.63;4.13;;;;;;;;;;5090582;28;20176;-52
2023/02/18 11:26:16;;;;;;;11.07;5.20;;;;;;;;;;5091724;28;20187;-53
2023/02/18 11:28:49;;;;;;;9.37;5.23;;;;;;;;;;5085374;28;20192;-54
2023/02/18 11:31:26;;;;;;;9.33;4.60;;;;;;;;;;5091032;28;20376;-52
2023/02/18 11:33:57;;;;;;;9.50;4.70;;;;;;;;;;5086278;28;20211;-54
2023/02/18 11:36:34;;;;;;;8.67;5.77;;;;;;;;;;5097105;28;20187;-53
2023/02/18 11:39:06;;;;;;;7.07;5.13;;;;;;;;;;5090614;28;20190;-53
2023/02/18 11:41:36;;;;;;;10.10;6.03;;;;;;;;;;5090908;28;20183;-55
2023/02/18 11:44:04;;;;;;;12.87;5.10;;;;;;;;;;5084326;28;20179;-53
2023/02/18 11:46:31;;;;;;;11.63;5.17;;;;;;;;;;5086613;28;20710;-54
2023/02/18 11:49:10;;;;;;;9.47;5.47;;;;;;;;;;5081159;28;20183;-54
2023/02/18 11:51:39;;;;;;;9.03;5.00;;;;;;;;;;5089301;28;20276;-53
2023/02/18 11:54:20;;;;;;;6.07;5.23;;;;;;;;;;5090812;28;20577;-53
2023/02/18 11:56:54;;;;;;;11.43;6.90;;;;;;;;;;5088892;28;20203;-53
2023/02/18 11:59:20;;;;;;;8.83;5.80;;;;;;;;;;5085779;28;20599;-53
2023/02/18 12:01:48;;;;;;;10.67;6.37;;;;;;;;;;5087253;28;20184;-53
2023/02/18 12:04:40;;;;;;;9.87;7.10;;;;;;;;;;5087716;28;20302;-53
2023/02/18 12:07:20;;;;;;;8.90;6.17;;;;;;;;;;5066910;28;20716;-53
2023/02/18 12:09:48;;;;;;;7.93;6.90;;;;;;;;;;5094930;28;20767;-53
2023/02/18 12:12:33;;;;;;;9.47;6.47;;;;;;;;;;5090208;28;20179;-52
2023/02/18 12:14:59;;;;;;;8.80;6.83;;;;;;;;;;5090423;28;20176;-54
2023/02/18 12:17:28;;;;;;;8.97;6.17;;;;;;;;;;5082485;28;20238;-53
2023/02/18 12:20:13;;;;;;;8.83;7.67;;;;;;;;;;5093457;28;20195;-53
2023/02/18 12:22:43;;;;;;;7.73;6.03;;;;;;;;;;5087372;28;20184;-52
2023/02/18 12:25:21;;;;;;;10.77;6.37;;;;;;;;;;5086150;28;20187;-52
2023/02/18 12:27:47;;;;;;;7.93;6.70;;;;;;;;;;5088100;28;20207;-53
2023/02/18 12:30:32;;;;;;;7.67;6.40;;;;;;;;;;5081650;28;20290;-53
2023/02/18 12:33:04;;;;;;;10.10;6.43;;;;;;;;;;5089479;28;20175;-54
2023/02/18 12:35:51;;;;;;;7.10;6.40;;;;;;;;;;5087992;28;20171;-53
2023/02/18 12:38:37;;;;;;;9.67;7.13;;;;;;;;;;5081903;28;20237;-52
2023/02/18 12:41:06;;;;;;;8.67;7.10;;;;;;;;;;5093310;28;20179;-53
2023/02/18 12:43:38;;;;;;;7.43;6.53;;;;;;;;;;5082313;28;20184;-54
2023/02/18 12:46:23;;;;;;;8.43;7.23;;;;;;;;;;5090186;28;20187;-54
2023/02/18 12:48:58;;;;;;;8.10;6.67;;;;;;;;;;5088693;28;20199;-53
2023/02/18 12:51:36;;;;;;;7.33;6.73;;;;;;;;;;5086283;28;20195;-54
2023/02/18 12:54:02;;;;;;;8.33;7.37;;;;;;;;;;5071653;28;20187;-53
2023/02/18 12:56:38;;;;;;;9.20;8.10;;;;;;;;;;5082617;28;20200;-53
2023/02/18 12:59:19;;;;;;;8.87;7.93;;;;;;;;;;5078473;28;20180;-55
2023/02/18 13:01:54;;;;;;;10.17;9.17;;;;;;;;;;5077275;28;20233;-53
2023/02/18 13:04:29;;;;;;;9.20;8.37;;;;;;;;;;5086194;28;20326;-52
2023/02/18 13:07:01;;;;;;;9.03;8.00;;;;;;;;;;5080920;28;20222;-53
2023/02/18 13:09:30;;;;;;;8.47;7.67;;;;;;;;;;5091048;28;20184;-52
2023/02/18 13:12:19;;;;;;;9.60;8.07;;;;;;;;;;5080571;28;20195;-53
2023/02/18 13:14:56;;;;;;;10.30;7.20;;;;;;;;;;5077433;28;20659;-53
2023/02/18 13:17:24;;;;;;;9.47;8.50;;;;;;;;;;5085889;28;20268;-53
2023/02/18 13:19:55;;;;;;;12.47;8.17;;;;;;;;;;5087608;28;20463;-54
2023/02/18 13:22:23;;;;;;;9.00;8.03;;;;;;;;;;5087885;28;20191;-53
2023/02/18 13:24:50;;;;;;;9.17;7.93;;;;;;;;;;5085138;28;20185;-53
2023/02/18 13:27:28;;;;;;;11.20;7.90;;;;;;;;;;5081418;28;20537;-52
2023/02/18 13:30:12;;;;;;;9.03;8.00;;;;;;;;;;5085614;28;20175;-52
2023/02/18 13:32:59;;;;;;;11.27;8.83;;;;;;;;;;5086152;28;20635;-52
2023/02/18 13:35:29;;;;;;;11.57;8.90;;;;;;;;;;5080368;28;20904;-52
2023/02/18 13:37:55;;;;;;;11.50;9.23;;;;;;;;;;5089626;28;20602;-53
2023/02/18 13:40:22;;;;;;;10.60;9.50;;;;;;;;;;5089736;28;20199;-54
2023/02/18 13:42:51;;;;;;;12.90;9.37;;;;;;;;;;5088508;28;20183;-53
2023/02/18 13:45:30;;;;;;;16.07;12.77;;;;;;;;;;5087111;28;20667;-54
2023/02/18 13:47:57;;;;;;;15.00;11.53;;;;;;;;;;5081326;28;20176;-54
2023/02/18 13:50:26;;;;;;;13.50;10.23;;;;;;;;;;5081334;28;20269;-53
2023/02/18 13:52:58;;;;;;;16.73;11.90;;;;;;;;;;5086887;28;20415;-52
2023/02/18 13:55:35;;;;;;;14.27;12.47;;;;;;;;;;5089982;28;20191;-53
2023/02/18 13:58:01;;;;;;;16.80;12.10;;;;;;;;;;5084210;28;20184;-53
2023/02/18 14:00:35;;;;;;;15.00;11.87;;;;;;;;;;5080482;28;20184;-52
2023/02/18 14:03:18;;;;;;;13.17;11.77;;;;;;;;;;5081816;28;20218;-52
2023/02/18 14:05:44;;;;;;;14.17;12.67;;;;;;;;;;5083704;28;20558;-52
2023/02/18 14:08:30;;;;;;;15.57;11.97;;;;;;;;;;5077024;28;20536;-52
2023/02/18 14:11:23;;;;;;;11.57;10.37;;;;;;;;;;5081656;28;20208;-52
2023/02/18 14:13:53;;;;;;;14.13;11.20;;;;;;;;;;5081539;28;20816;-52
2023/02/18 14:16:20;;;;;;;13.50;10.70;;;;;;;;;;5082348;28;20216;-52
2023/02/18 14:18:46;;;;;;;11.67;10.57;;;;;;;;;;5082332;28;20176;-54
2023/02/18 14:21:12;;;;;;;13.80;11.37;;;;;;;;;;5076108;28;20175;-53
2023/02/18 14:23:41;;;;;;;11.93;10.63;;;;;;;;;;5081837;28;20223;-53
2023/02/18 14:26:28;;;;;;;15.80;11.57;;;;;;;;;;5075769;28;20202;-52
2023/02/18 14:28:57;;;;;;;12.17;10.90;;;;;;;;;;5077518;28;20632;-53
2023/02/18 14:31:56;;;;;;;14.27;10.53;;;;;;;;;;5082351;28;20251;-54
2023/02/18 14:34:24;;;;;;;12.37;10.43;;;;;;;;;;5038272;28;20207;-52
2023/02/18 14:37:01;;;;;;;13.53;10.23;;;;;;;;;;5080958;28;20187;-53
2023/02/18 14:39:39;;;;;;;14.37;10.57;;;;;;;;;;5083939;28;20176;-53
2023/02/18 14:42:37;;;;;;;11.13;9.27;;;;;;;;;;5078650;28;20701;-53
2023/02/18 14:45:16;;;;;;;12.27;8.93;;;;;;;;;;5027777;28;20194;-54
2023/02/18 14:47:57;;;;;;;11.27;8.83;;;;;;;;;;5082825;28;20180;-54
2023/02/18 14:50:24;;;;;;;11.10;9.27;;;;;;;;;;5078617;28;20219;-53